Phu Bai Airport
VVPB : now visible

Airfield :











YOU CAN JOIN US ON...

 
LOGIN :

Register | Disclaimer

   EN    FR    IT 

 









Legend :    VFR   Marginal VFR   IFR   Intensive IFR   Very Intensive IFR
Visi :
Ceiling :
>= 8 km
>= 3000ft
5 to 8 km
1000 to 3000 ft
1500m to 5 km
500 to 1000 ft
800 to 1500m
200 to 500 ft
< 800m
< 200 ft
Symbols :   Thunderstorms  Fog  Heavy snow  Heavy precipitations  Wind > 20 kt






- Airport Elevation : 48 ft
- IATA code : HUI


VVPB - Phu Bai

CURRENT METAR :
  • 271130Z 29016G26KT 3000 RA SCT004 SCT010 BKN030 25/23 Q1001 NOSIG

EXPIRED METARs :
  • 271100Z 28017KT 3000 RA SCT004 SCT010 BKN030 24/23 Q1001 NOSIG
  • 271030Z 29015KT 3000 RA SCT004 SCT010 BKN030 24/23 Q1001 NOSIG
  • 271000Z 28016KT 2000 +RA SCT004 SCT010 FEW013CB BKN030 24/23 Q1001 NOSIG
  • 270930Z 29018KT 2000 +RA SCT004 SCT010 FEW013CB BKN030 24/24 Q1002 NOSIG
  • 270900Z 29014KT 2500 RA SCT004 SCT010 FEW013CB BKN030 25/24 Q1002 NOSIG

TAF TAF VVPB
Valid from the 27 at 12:00 until the 28 at 12:00 UTC


271100Z 2712/2812 30018KT 6000 RA SCT010 BKN030
TEMPO 2712/2715 32020G30KT 2000 +SHRA BKN010 SCT015CB OVC030
TEMPO 2715/2717 34025G40KT 1400 +SHRA BKN008 SCT015CB OVC030
TEMPO 2717/2806 05040G55KT 1200 +SHRA BKN008 SCT015CB OVC030
TEMPO 2806/2809 08020G30KT 3000 SHRA BKN010 SCT010CB OVC040
BECMG 2809/2810 10010KT
VVTS FIR / Asia



MET'MAP, your aeronautical weather chart ! - Copyright ORBIFLY December 2007 - Disclaimer

ORBIFLY MET'MAP TEAM :

Programming & Development : Alexandra Zaïnal
Original concept : Baudouin d'Aumeries
Technical & hardware support : Manuel Goepfert
Assistance : Marc-Olivier Méhu




SOURCES & CREDITS :

   NOAA       Earth
Advisory